createdAt,value
2023-01-13T00:01:26.931Z,1.70
2023-01-13T00:03:53.776Z,2.95
2023-01-13T00:06:23.793Z,3.15
2023-01-13T00:08:52.123Z,1.58
2023-01-13T00:11:20.535Z,2.22
2023-01-13T00:13:47.437Z,1.50
2023-01-13T00:16:17.460Z,1.92
2023-01-13T00:18:45.217Z,2.15
2023-01-13T00:21:17.519Z,1.63
2023-01-13T00:23:45.080Z,2.50
2023-01-13T00:26:17.856Z,1.58
2023-01-13T00:28:44.774Z,1.98
2023-01-13T00:31:15.486Z,2.72
2023-01-13T00:33:42.619Z,1.95
2023-01-13T00:36:12.392Z,1.38
2023-01-13T00:38:40.536Z,3.60
2023-01-13T00:41:10.543Z,1.63
2023-01-13T00:43:38.092Z,1.60
2023-01-13T00:46:07.924Z,1.98
2023-01-13T00:48:35.183Z,2.00
2023-01-13T00:51:11.579Z,2.08
2023-01-13T00:53:40.427Z,1.85
2023-01-13T00:56:16.828Z,2.15
2023-01-13T00:58:46.347Z,1.45
2023-01-13T01:01:16.263Z,2.20
2023-01-13T01:03:43.454Z,1.88
2023-01-13T01:06:19.256Z,2.00
2023-01-13T01:11:16.294Z,1.48
2023-01-13T01:13:44.241Z,2.38
2023-01-13T01:16:13.894Z,1.25
2023-01-13T01:18:43.589Z,1.85
2023-01-13T01:21:11.077Z,3.80
2023-01-13T01:23:39.147Z,5.80
2023-01-13T01:26:11.084Z,2.60
2023-01-13T01:28:38.255Z,2.00
2023-01-13T01:31:16.340Z,1.83
2023-01-13T01:33:43.653Z,5.28
2023-01-13T01:36:12.344Z,2.85
2023-01-13T01:38:39.347Z,1.92
2023-01-13T01:41:07.283Z,1.75
2023-01-13T01:43:51.111Z,2.50
2023-01-13T01:46:17.865Z,2.15
2023-01-13T01:48:44.653Z,1.50
2023-01-13T01:51:13.814Z,1.70
2023-01-13T01:53:40.861Z,0.88
2023-01-13T01:56:10.664Z,1.92
2023-01-13T01:58:46.103Z,2.95
2023-01-13T02:01:14.838Z,1.13
2023-01-13T02:03:47.694Z,1.75
2023-01-13T02:06:16.056Z,1.48
2023-01-13T02:08:42.904Z,1.40
2023-01-13T02:11:31.383Z,1.67
2023-01-13T02:13:58.128Z,1.00
2023-01-13T02:16:25.083Z,0.75
2023-01-13T02:19:23.583Z,1.77
2023-01-13T02:21:53.404Z,1.55
2023-01-13T02:24:52.239Z,2.28
2023-01-13T02:28:00.671Z,1.92
2023-01-13T02:30:39.434Z,1.08
2023-01-13T02:33:27.749Z,1.02
2023-01-13T02:36:29.638Z,1.40
2023-01-13T02:39:11.757Z,1.05
2023-01-13T02:41:46.166Z,0.93
2023-01-13T02:44:18.652Z,1.13
2023-01-13T02:46:54.965Z,1.55
2023-01-13T02:49:36.486Z,0.73
2023-01-13T02:52:31.339Z,0.88
2023-01-13T02:55:03.425Z,1.00
2023-01-13T02:57:33.793Z,1.40
2023-01-13T03:00:02.742Z,1.15
2023-01-13T03:02:29.641Z,1.67
2023-01-13T03:04:58.693Z,0.77
2023-01-13T03:08:02.681Z,0.73
2023-01-13T03:10:29.398Z,1.60
2023-01-13T03:13:25.955Z,1.10
2023-01-13T03:18:42.644Z,0.93
2023-01-13T03:21:19.567Z,1.38
2023-01-13T03:24:05.559Z,1.38
2023-01-13T03:26:52.945Z,2.15
2023-01-13T03:29:49.002Z,1.30
2023-01-13T03:32:27.126Z,1.30
2023-01-13T03:34:58.915Z,1.50
2023-01-13T03:37:34.094Z,2.88
2023-01-13T03:40:05.864Z,1.38
2023-01-13T03:42:34.932Z,2.20
2023-01-13T03:45:15.571Z,1.33
2023-01-13T03:47:55.034Z,1.67
2023-01-13T03:50:29.884Z,1.80
2023-01-13T03:53:02.514Z,3.33
2023-01-13T03:55:37.622Z,0.73
2023-01-13T03:58:09.885Z,1.35
2023-01-13T04:01:04.974Z,1.40
2023-01-13T04:03:37.541Z,0.95
2023-01-13T04:06:21.934Z,3.72
2023-01-13T04:08:58.350Z,0.80
2023-01-13T04:11:42.868Z,1.90
2023-01-13T04:14:12.469Z,2.90
2023-01-13T04:16:39.724Z,1.60
2023-01-13T04:19:08.492Z,1.25
2023-01-13T04:21:35.652Z,1.40
2023-01-13T04:24:02.326Z,0.52
2023-01-13T04:26:29.046Z,2.58
2023-01-13T04:28:55.854Z,0.93
2023-01-13T04:31:22.560Z,1.42
2023-01-13T04:33:49.311Z,1.05
2023-01-13T04:36:16.001Z,1.65
2023-01-13T04:38:43.831Z,0.50
2023-01-13T04:41:10.586Z,1.30
2023-01-13T04:43:37.309Z,1.48
2023-01-13T04:46:04.022Z,2.63
2023-01-13T04:48:30.792Z,1.95
2023-01-13T04:50:57.512Z,1.38
2023-01-13T04:53:24.231Z,1.52
2023-01-13T04:55:50.960Z,0.63
2023-01-13T04:58:17.820Z,2.15
2023-01-13T05:00:44.495Z,1.05
2023-01-13T05:03:11.235Z,1.15
2023-01-13T05:05:37.917Z,1.20
2023-01-13T05:08:05.112Z,1.30
2023-01-13T05:10:31.786Z,2.60
2023-01-13T05:12:58.504Z,1.40
2023-01-13T05:15:25.278Z,1.58
2023-01-13T05:17:52.321Z,0.90
2023-01-13T05:20:19.244Z,1.05
2023-01-13T05:22:45.939Z,2.78
2023-01-13T05:25:12.965Z,4.72
2023-01-13T05:27:39.646Z,2.28
2023-01-13T05:30:07.288Z,1.48
2023-01-13T05:32:34.068Z,2.10
2023-01-13T05:35:00.821Z,2.15
2023-01-13T05:37:27.482Z,1.45
2023-01-13T05:39:54.315Z,1.67
2023-01-13T05:42:20.957Z,2.03
2023-01-13T05:44:47.601Z,0.85
2023-01-13T05:47:14.236Z,1.23
2023-01-13T05:49:42.288Z,1.85
2023-01-13T05:52:09.067Z,3.63
2023-01-13T05:54:35.842Z,1.42
2023-01-13T05:57:02.516Z,2.78
2023-01-13T05:59:29.181Z,3.90
2023-01-13T06:01:55.862Z,1.30
2023-01-13T06:04:22.604Z,1.77
2023-01-13T06:06:49.304Z,1.33
2023-01-13T06:09:16.082Z,1.42
2023-01-13T06:11:43.137Z,2.20
2023-01-13T06:14:09.850Z,2.42
2023-01-13T06:16:36.570Z,2.53
2023-01-13T06:19:03.235Z,1.20
2023-01-13T06:21:32.378Z,1.95
2023-01-13T06:23:59.820Z,2.35
2023-01-13T06:26:30.177Z,2.50
2023-01-13T06:28:56.920Z,2.67
2023-01-13T06:31:24.319Z,2.42
2023-01-13T06:33:55.831Z,2.28
2023-01-13T06:36:30.919Z,2.85
2023-01-13T06:39:00.098Z,1.48
2023-01-13T06:41:27.784Z,1.90
2023-01-13T06:43:54.476Z,2.35
2023-01-13T06:46:21.224Z,3.22
2023-01-13T06:48:47.931Z,1.77
2023-01-13T06:51:14.656Z,2.20
2023-01-13T06:53:41.387Z,2.10
2023-01-13T06:56:08.098Z,3.08
2023-01-13T06:58:34.724Z,5.97
2023-01-13T07:01:01.818Z,2.22
2023-01-13T07:03:28.555Z,3.70
2023-01-13T07:05:56.008Z,4.07
2023-01-13T07:08:23.988Z,2.47
2023-01-13T07:10:51.082Z,2.97
2023-01-13T07:13:17.988Z,1.52
2023-01-13T07:15:53.419Z,2.38
2023-01-13T07:18:20.213Z,2.33
2023-01-13T07:20:56.549Z,1.70
2023-01-13T07:23:25.528Z,2.00
2023-01-13T07:25:54.277Z,1.83
2023-01-13T07:28:20.969Z,1.55
2023-01-13T07:30:48.069Z,4.43
2023-01-13T07:33:14.998Z,3.30
2023-01-13T07:35:42.774Z,1.67
2023-01-13T07:38:09.771Z,1.60
2023-01-13T07:40:37.147Z,3.97
2023-01-13T07:43:04.233Z,4.53
2023-01-13T07:45:31.071Z,4.55
2023-01-13T07:47:57.704Z,2.80
2023-01-13T07:50:25.738Z,3.38
2023-01-13T07:52:53.164Z,3.72
2023-01-13T07:55:21.062Z,2.95
2023-01-13T07:57:48.731Z,4.15
2023-01-13T08:00:16.157Z,3.28
2023-01-13T08:02:43.181Z,1.80
2023-01-13T08:05:10.049Z,1.05
2023-01-13T08:07:36.850Z,2.45
2023-01-13T08:10:04.515Z,2.15
2023-01-13T08:12:31.550Z,2.42
2023-01-13T08:14:58.257Z,2.33
2023-01-13T08:17:24.955Z,3.42
2023-01-13T08:19:51.686Z,1.50
2023-01-13T08:22:18.407Z,3.13
2023-01-13T08:24:45.099Z,2.38
2023-01-13T08:27:11.811Z,3.03
2023-01-13T08:29:38.510Z,2.38
2023-01-13T08:32:05.955Z,2.10
2023-01-13T08:34:32.665Z,2.63
2023-01-13T08:36:59.353Z,2.20
2023-01-13T08:39:26.042Z,2.00
2023-01-13T08:41:52.761Z,1.85
2023-01-13T08:44:19.434Z,2.88
2023-01-13T08:46:46.349Z,2.25
2023-01-13T08:49:13.083Z,1.92
2023-01-13T08:51:39.739Z,3.53
2023-01-13T08:54:06.433Z,1.83
2023-01-13T08:56:35.468Z,2.63
2023-01-13T08:59:02.394Z,5.88
2023-01-13T09:01:29.313Z,3.00
2023-01-13T09:03:56.214Z,2.92
2023-01-13T09:06:22.985Z,4.90
2023-01-13T09:08:49.638Z,2.00
2023-01-13T09:11:26.167Z,2.05
2023-01-13T09:13:53.025Z,3.75
2023-01-13T09:16:19.841Z,4.10
2023-01-13T09:18:46.631Z,4.78
2023-01-13T09:21:13.907Z,4.20
2023-01-13T09:23:40.611Z,2.80
2023-01-13T09:26:09.202Z,3.55
2023-01-13T09:28:36.033Z,4.75
2023-01-13T09:31:02.806Z,2.95
2023-01-13T09:33:29.585Z,6.45
2023-01-13T09:35:59.370Z,4.18
2023-01-13T09:38:26.049Z,4.47
2023-01-13T09:40:53.632Z,6.10
2023-01-13T09:43:25.824Z,6.68
2023-01-13T09:46:03.007Z,6.80
2023-01-13T09:48:38.961Z,6.00
2023-01-13T09:51:23.441Z,4.10
2023-01-13T09:53:59.401Z,5.80
2023-01-13T09:56:26.603Z,5.43
2023-01-13T09:58:53.333Z,4.45
2023-01-13T10:01:29.109Z,5.57
2023-01-13T10:06:40.471Z,5.63
2023-01-13T10:09:16.303Z,4.93
2023-01-13T10:11:47.392Z,4.03
2023-01-13T10:14:56.259Z,4.45
2023-01-13T10:17:39.155Z,5.10
2023-01-13T10:20:35.109Z,3.65
2023-01-13T10:23:23.205Z,5.80
2023-01-13T10:25:52.450Z,5.00
2023-01-13T10:28:19.493Z,4.85
2023-01-13T10:30:47.575Z,4.35
2023-01-13T10:33:15.553Z,7.30
2023-01-13T10:36:14.221Z,10.20
2023-01-13T10:38:46.168Z,5.22
2023-01-13T10:41:15.835Z,6.72
2023-01-13T10:43:44.292Z,4.88
2023-01-13T10:46:13.718Z,4.13
2023-01-13T10:48:57.695Z,3.08
2023-01-13T10:51:37.427Z,4.38
2023-01-13T10:54:13.225Z,3.95
2023-01-13T10:59:19.424Z,4.13
2023-01-13T11:02:25.448Z,5.28
2023-01-13T11:04:58.943Z,4.10
2023-01-13T11:07:41.282Z,3.53
2023-01-13T11:10:20.219Z,6.18
2023-01-13T11:13:10.715Z,5.07
2023-01-13T11:16:04.684Z,3.97
2023-01-13T11:18:57.357Z,5.47
2023-01-13T11:21:37.635Z,7.25
2023-01-13T11:24:25.834Z,5.38
2023-01-13T11:27:23.608Z,6.20
2023-01-13T11:30:02.656Z,2.95
2023-01-13T11:32:37.044Z,6.40
2023-01-13T11:35:22.461Z,5.57
2023-01-13T11:37:58.037Z,9.30
2023-01-13T11:40:33.421Z,6.93
2023-01-13T11:43:10.600Z,6.40
2023-01-13T11:45:49.508Z,3.30
2023-01-13T11:48:19.710Z,6.57
2023-01-13T11:51:14.509Z,5.50
2023-01-13T11:54:00.078Z,4.85
2023-01-13T11:57:00.382Z,7.38
2023-01-13T11:59:33.130Z,7.22
2023-01-13T12:02:30.719Z,9.65
2023-01-13T12:05:17.779Z,7.65
2023-01-13T12:08:04.059Z,7.43
2023-01-13T12:10:39.069Z,5.88
2023-01-13T12:13:37.829Z,7.47
2023-01-13T12:16:04.481Z,8.82
2023-01-13T12:18:31.086Z,4.85
2023-01-13T12:21:18.526Z,8.82
2023-01-13T12:24:11.050Z,10.07
2023-01-13T12:26:46.298Z,6.35
2023-01-13T12:29:16.752Z,5.88
2023-01-13T12:31:45.149Z,8.45
2023-01-13T12:34:50.090Z,7.38
2023-01-13T12:37:22.772Z,9.55
2023-01-13T12:40:42.460Z,5.90
2023-01-13T12:43:21.492Z,8.65
2023-01-13T12:45:48.305Z,6.82
2023-01-13T12:48:51.909Z,7.88
2023-01-13T12:51:28.505Z,7.40
2023-01-13T12:53:56.311Z,8.55
2023-01-13T12:56:36.724Z,8.82
2023-01-13T12:59:32.862Z,7.28
2023-01-13T13:02:12.151Z,7.35
2023-01-13T13:04:52.482Z,9.90
2023-01-13T13:07:26.675Z,9.90
2023-01-13T13:09:58.944Z,7.65
2023-01-13T13:12:31.588Z,9.48
2023-01-13T13:14:58.268Z,11.50
2023-01-13T13:17:31.203Z,6.93
2023-01-13T13:19:59.730Z,10.07
2023-01-13T13:22:26.392Z,8.48
2023-01-13T13:24:56.885Z,9.10
2023-01-13T13:27:42.693Z,7.45
2023-01-13T13:30:30.176Z,7.28
2023-01-13T13:33:59.865Z,7.55
2023-01-13T13:36:29.530Z,7.57
2023-01-13T13:39:24.291Z,9.82
2023-01-13T13:41:57.379Z,8.50
2023-01-13T13:44:32.776Z,6.47
2023-01-13T13:47:02.816Z,7.20
2023-01-13T13:49:44.891Z,7.90
2023-01-13T13:52:26.780Z,10.45
2023-01-13T13:54:58.232Z,10.38
2023-01-13T13:57:34.972Z,13.75
2023-01-13T14:00:21.191Z,7.55
2023-01-13T14:02:56.619Z,6.80
2023-01-13T14:05:25.191Z,7.93
2023-01-13T14:08:00.632Z,5.93
2023-01-13T14:10:33.654Z,10.27
2023-01-13T14:13:02.384Z,6.60
2023-01-13T14:15:35.560Z,6.45
2023-01-13T14:18:05.658Z,11.63
2023-01-13T14:20:33.051Z,10.98
2023-01-13T14:23:00.220Z,8.40
2023-01-13T14:25:30.850Z,8.90
2023-01-13T14:28:04.873Z,8.70
2023-01-13T14:30:32.992Z,8.90
2023-01-13T14:33:00.707Z,9.40
2023-01-13T14:35:27.897Z,10.90
2023-01-13T14:38:02.082Z,6.70
2023-01-13T14:40:46.679Z,9.18
2023-01-13T14:43:19.657Z,7.25
2023-01-13T14:46:02.019Z,9.68
2023-01-13T14:48:34.319Z,8.85
2023-01-13T14:51:07.632Z,7.35
2023-01-13T14:53:42.709Z,12.70
2023-01-13T14:56:49.838Z,11.57
2023-01-13T14:59:48.930Z,11.90
2023-01-13T15:02:30.465Z,8.07
2023-01-13T15:05:18.004Z,10.60
2023-01-13T15:07:53.651Z,10.02
2023-01-13T15:10:56.900Z,7.40
2023-01-13T15:13:29.481Z,12.00
2023-01-13T15:15:58.847Z,9.98
2023-01-13T15:18:25.896Z,9.65
2023-01-13T15:20:53.789Z,10.13
2023-01-13T15:23:21.332Z,7.72
2023-01-13T15:25:49.043Z,10.60
2023-01-13T15:28:26.669Z,9.90
2023-01-13T15:30:55.294Z,8.80
2023-01-13T15:33:22.750Z,7.38
2023-01-13T15:35:53.383Z,11.25
2023-01-13T15:38:22.262Z,12.57
2023-01-13T15:40:51.668Z,10.23
2023-01-13T15:43:21.353Z,8.77
2023-01-13T15:45:48.068Z,11.77
2023-01-13T15:48:14.868Z,10.20
2023-01-13T15:50:41.677Z,11.35
2023-01-13T15:53:14.240Z,9.85
2023-01-13T15:55:43.762Z,6.97
2023-01-13T15:58:14.191Z,12.10
2023-01-13T16:00:42.116Z,12.10
2023-01-13T16:03:14.362Z,10.10
2023-01-13T16:05:41.792Z,11.00
2023-01-13T16:08:18.900Z,12.98
2023-01-13T16:10:46.451Z,13.02
2023-01-13T16:13:14.612Z,9.57
2023-01-13T16:15:50.147Z,9.90
2023-01-13T16:18:19.804Z,11.10
2023-01-13T16:20:47.456Z,8.88
2023-01-13T16:23:14.275Z,10.02
2023-01-13T16:25:41.294Z,9.68
2023-01-13T16:28:25.517Z,8.77
2023-01-13T16:30:52.582Z,11.10
2023-01-13T16:33:19.348Z,9.23
2023-01-13T16:36:10.771Z,11.18
2023-01-13T16:38:35.897Z,12.73
2023-01-13T16:41:02.656Z,10.38
2023-01-13T16:43:29.556Z,11.32
2023-01-13T16:45:56.415Z,13.38
2023-01-13T16:48:23.767Z,9.77
2023-01-13T16:50:51.188Z,11.52
2023-01-13T16:53:18.200Z,8.80
2023-01-13T16:55:44.931Z,14.65
2023-01-13T16:58:20.360Z,12.52
2023-01-13T17:00:47.899Z,8.55
2023-01-13T17:03:15.325Z,10.15
2023-01-13T17:05:44.138Z,9.00
2023-01-13T17:08:13.356Z,7.93
2023-01-13T17:10:40.311Z,8.50
2023-01-13T17:13:15.618Z,10.30
2023-01-13T17:15:43.440Z,10.57
2023-01-13T17:18:10.089Z,10.27
2023-01-13T17:20:36.799Z,9.85
2023-01-13T17:23:03.510Z,12.27
2023-01-13T17:25:30.170Z,8.23
2023-01-13T17:27:59.722Z,12.82
2023-01-13T17:30:26.514Z,8.85
2023-01-13T17:32:53.178Z,12.77
2023-01-13T17:35:21.149Z,8.80
2023-01-13T17:37:49.449Z,9.63
2023-01-13T17:40:16.303Z,8.95
2023-01-13T17:42:44.007Z,8.27
2023-01-13T17:45:11.192Z,9.85
2023-01-13T17:47:38.387Z,11.35
2023-01-13T17:50:05.564Z,13.43
2023-01-13T17:52:33.928Z,8.40
2023-01-13T17:55:00.686Z,12.75
2023-01-13T17:57:27.509Z,11.80
2023-01-13T17:59:54.295Z,11.30
2023-01-13T18:02:21.052Z,12.82
2023-01-13T18:04:48.054Z,12.65
2023-01-13T18:07:14.740Z,9.75
2023-01-13T18:09:41.419Z,10.82
2023-01-13T18:12:08.128Z,12.68
2023-01-13T18:14:35.057Z,11.68
2023-01-13T18:17:01.824Z,10.38
2023-01-13T18:19:28.565Z,8.00
2023-01-13T18:21:55.298Z,9.00
2023-01-13T18:24:22.330Z,9.32
2023-01-13T18:26:49.321Z,9.68
2023-01-13T18:29:15.985Z,8.95
2023-01-13T18:31:42.717Z,9.93
2023-01-13T18:34:09.411Z,9.05
2023-01-13T18:36:37.524Z,13.80
2023-01-13T18:39:04.598Z,11.30
2023-01-13T18:41:31.448Z,9.73
2023-01-13T18:43:59.266Z,10.93
2023-01-13T18:46:26.155Z,8.82
2023-01-13T18:48:52.997Z,13.23
2023-01-13T18:51:19.745Z,13.57
2023-01-13T18:53:46.476Z,15.18
2023-01-13T18:56:13.993Z,15.57
2023-01-13T18:58:41.561Z,15.73
2023-01-13T19:01:08.601Z,13.35
2023-01-13T19:03:35.383Z,12.05
2023-01-13T19:06:04.246Z,10.85
2023-01-13T19:08:30.870Z,12.10
2023-01-13T19:10:57.583Z,13.85
2023-01-13T19:13:24.390Z,14.02
2023-01-13T19:15:51.060Z,12.40
2023-01-13T19:18:17.897Z,15.35
2023-01-13T19:20:44.714Z,19.77
2023-01-13T19:23:11.380Z,16.65
2023-01-13T19:25:38.112Z,12.85
2023-01-13T19:28:05.060Z,10.50
2023-01-13T19:30:31.867Z,11.43
2023-01-13T19:32:58.681Z,12.25
2023-01-13T19:35:26.712Z,13.90
2023-01-13T19:37:53.364Z,10.75
2023-01-13T19:40:20.011Z,11.70
2023-01-13T19:42:46.731Z,12.57
2023-01-13T19:45:14.889Z,12.88
2023-01-13T19:47:44.262Z,14.75
2023-01-13T19:50:11.266Z,10.93
2023-01-13T19:52:37.940Z,7.90
2023-01-13T19:55:05.025Z,11.25
2023-01-13T19:57:32.331Z,12.27
2023-01-13T19:59:59.046Z,8.48
2023-01-13T20:02:25.804Z,11.45
2023-01-13T20:04:52.499Z,11.55
2023-01-13T20:07:19.164Z,7.82
2023-01-13T20:09:45.840Z,9.52
2023-01-13T20:12:12.550Z,10.85
2023-01-13T20:14:39.270Z,11.43
2023-01-13T20:17:06.011Z,10.38
2023-01-13T20:19:32.882Z,10.65
2023-01-13T20:21:59.907Z,9.63
2023-01-13T20:24:26.729Z,12.55
2023-01-13T20:26:55.049Z,9.00
2023-01-13T20:29:22.221Z,9.82
2023-01-13T20:31:49.995Z,9.05
2023-01-13T20:34:17.825Z,10.95
2023-01-13T20:36:44.729Z,12.85
2023-01-13T20:39:15.902Z,9.45
2023-01-13T20:41:42.552Z,12.48
2023-01-13T20:44:09.245Z,6.85
2023-01-13T20:46:36.042Z,9.52
2023-01-13T20:49:02.803Z,12.02
2023-01-13T20:51:31.805Z,10.60
2023-01-13T20:53:58.544Z,9.18
2023-01-13T20:56:28.386Z,9.80
2023-01-13T20:58:55.211Z,10.90
2023-01-13T21:01:22.363Z,9.20
2023-01-13T21:03:49.150Z,15.45
2023-01-13T21:06:15.935Z,8.70
2023-01-13T21:08:48.963Z,9.40
2023-01-13T21:11:16.753Z,8.85
2023-01-13T21:13:43.986Z,11.77
2023-01-13T21:16:11.864Z,8.75
2023-01-13T21:18:38.688Z,9.18
2023-01-13T21:21:06.495Z,10.00
2023-01-13T21:23:33.660Z,9.30
2023-01-13T21:26:03.066Z,12.18
2023-01-13T21:28:29.814Z,8.88
2023-01-13T21:31:02.071Z,12.05
2023-01-13T21:33:28.749Z,11.95
2023-01-13T21:35:55.473Z,12.88
2023-01-13T21:38:22.257Z,8.10
2023-01-13T21:41:08.514Z,10.02
2023-01-13T21:43:36.866Z,8.52
2023-01-13T21:46:12.326Z,11.48
2023-01-13T21:48:39.270Z,12.93
2023-01-13T21:51:06.132Z,11.38
2023-01-13T21:53:32.927Z,11.15
2023-01-13T21:56:01.137Z,8.48
2023-01-13T21:58:27.864Z,11.70
2023-01-13T22:00:54.641Z,8.60
2023-01-13T22:03:21.439Z,8.43
2023-01-13T22:05:54.264Z,10.15
2023-01-13T22:08:20.992Z,8.32
2023-01-13T22:10:47.713Z,8.57
2023-01-13T22:13:22.071Z,11.18
2023-01-13T22:15:48.902Z,10.50
2023-01-13T22:18:18.580Z,11.13
2023-01-13T22:20:45.986Z,9.55
2023-01-13T22:23:12.776Z,8.35
2023-01-13T22:25:39.893Z,11.50
2023-01-13T22:28:06.575Z,9.57
2023-01-13T22:30:33.405Z,11.90
2023-01-13T22:33:00.542Z,9.73
2023-01-13T22:35:27.339Z,8.63
2023-01-13T22:37:54.104Z,10.55
2023-01-13T22:40:20.778Z,12.65
2023-01-13T22:42:47.679Z,7.53
2023-01-13T22:45:15.082Z,11.13
2023-01-13T22:47:42.115Z,9.05
2023-01-13T22:50:09.732Z,10.30
2023-01-13T22:52:36.606Z,8.98
2023-01-13T22:55:03.835Z,9.10
2023-01-13T22:57:36.165Z,8.02
2023-01-13T23:00:05.978Z,7.50
2023-01-13T23:02:32.668Z,9.43
2023-01-13T23:04:59.352Z,11.30
2023-01-13T23:07:26.061Z,11.32
2023-01-13T23:09:52.755Z,11.15
2023-01-13T23:12:19.404Z,7.97
2023-01-13T23:14:46.105Z,8.20
2023-01-13T23:17:12.790Z,9.27
2023-01-13T23:19:39.453Z,12.32
2023-01-13T23:22:06.163Z,9.40
2023-01-13T23:24:32.944Z,10.35
2023-01-13T23:26:59.643Z,9.05
2023-01-13T23:29:26.369Z,11.18
2023-01-13T23:31:53.130Z,7.82
2023-01-13T23:34:19.916Z,10.25
2023-01-13T23:36:46.712Z,9.48
2023-01-13T23:39:13.386Z,8.27
2023-01-13T23:41:40.126Z,11.70
2023-01-13T23:44:07.287Z,16.40
2023-01-13T23:46:34.420Z,10.02
2023-01-13T23:49:02.360Z,13.02
2023-01-13T23:51:29.211Z,8.38
2023-01-13T23:53:56.501Z,13.63
2023-01-13T23:56:25.395Z,10.70
2023-01-13T23:58:52.387Z,13.50
